McCarran International Airport
KLAS : now visible

Airfield :











YOU CAN JOIN US ON...

 
LOGIN :

Register | Disclaimer

   EN    FR    IT 

 









Legend :    VFR   Marginal VFR   IFR   Intensive IFR   Very Intensive IFR
Visi :
Ceiling :
>= 8 km
>= 3000ft
5 to 8 km
1000 to 3000 ft
1500m to 5 km
500 to 1000 ft
800 to 1500m
200 to 500 ft
< 800m
< 200 ft
Symbols :   Thunderstorms  Fog  Heavy snow  Heavy precipitations  Wind > 20 kt






- Airport Elevation : 2181 ft
- IATA code : LAS


KLAS - McCarran International

CURRENT METAR :
  • 080756Z 32006KT 10SM FEW040 SCT120 OVC200 12/08 A2999 RMK AO2 SLP151 T01170083 401500100

EXPIRED METARs :
  • 080656Z 00000KT 10SM FEW045 SCT120 OVC200 13/09 A2999 RMK AO2 SLP150 T01280089
  • 080556Z 00000KT 10SM FEW045 SCT120 OVC200 12/08 A3001 RMK AO2 SLP155 T01220083 10150 20122 55006

TAF KLAS
Valid from the 08 at 06:00 until the 09 at 12:00 UTC


080540Z 0806/0912 VRB05KT P6SM FEW050 BKN150 OVC200
FM081200 21010G16KT P6SM SCT050 BKN120 OVC200
FM082000 21012G20KT P6SM SCT050 BKN100
FM090200 30010G18KT P6SM -SHRA SCT040 BKN050
FM090500 30010KT P6SM SCT050 BKN080



MET'MAP, your aeronautical weather chart ! - Copyright ORBIFLY December 2007 - Disclaimer

ORBIFLY MET'MAP TEAM :

Programming & Development : Alexandra Zaïnal
Concept & original design : Baudouin d'Aumeries
Assistance for programming : Marc-Olivier Méhu
Technical & hardware support : Manuel Goepfert

Contact : metmap@orbifly.com




SOURCES & CREDITS :

   NOAA       Earth
Advisory